Terminal Aerodrome Forecast
Issued by NWS Wilmington, OH

Current Version | Previous Version | Graphics & Text | Print | Product List | Glossary Off
Versions: 1 2 3 4 5 6 7 8 9 10 11 12 13 14 15 16 17

000
FTUS41 KILN 192327
TAFDAY
TAF
KDAY 192327Z 2000/2024 18004KT P6SM VCSH BKN050
     FM200200 19004KT P6SM SCT150
     FM200600 VRB03KT 4SM BR SCT015
     FM200900 VRB03KT 1SM BR BKN015
     FM201400 22004KT P6SM BKN015
     FM201700 22006KT P6SM SCT050=

USA.gov is the U.S. government's official web portal to all federal, state and local government web resources and services.